Terminal Aerodrome Forecast
Issued by NWS

Home | Current Version | Previous Version | Text Only | Print | Product List | Glossary On
Versions: 1 2 3 4 5 6 7 8 9 10 11 12 13 14 15 16 17 18 19 20 21 22 23 24 25 26 27
000
FTUS43 KDVN 271445 AAA
TAFBRL
TAF AMD
KBRL 271445Z 2715/2812 28006KT P6SM BKN018
     FM271600 27008KT P6SM SCT015 BKN035
     FM271800 24006KT P6SM SCT035 SCT150
     FM272300 23005KT P6SM FEW050
     FM280300 17003KT P6SM SKC=

USA.gov is the U.S. government's official web portal to all federal, state and local government web resources and services.